Overview Statistics Trail Chart Weather Telemetry Raw packets
 

This is the latest recevied weather packets stored in our database for station/object K5IDL. If no packets are shown the sender has not sent any weather packets the latest 10 day(s).

<< 23 24 25 26 27 28 29 >>
Time Temp. Humidity Pressure Rain* Wind** Luminosity Snow
1788547606 35.56° C 49% 1014.8 hPa 0 mm - 207 W/m² -
1788547302 35° C 50% 1015 hPa 0 mm - 151 W/m² -
1788546998 36.11° C 48% 1015 hPa 0 mm - 404 W/m² -
1788546697 35° C 51% 1015.1 hPa 0 mm - 433 W/m² -
1788546392 35° C 52% 1015.3 hPa 0 mm - 631 W/m² -
1788546087 35° C 52% 1015.3 hPa 0 mm - 106 W/m² -
1788545784 35.56° C 51% 1015.4 hPa 0 mm - 619 W/m² -
1788545478 35° C 52% 1015.2 hPa 0 mm - 668 W/m² -
1788545174 35.56° C 52% 1015.5 hPa 0 mm - 654 W/m² -
1788544869 35.56° C 51% 1015.4 hPa 0 mm - 650 W/m² -
1788544568 34.44° C 52% 1015.7 hPa 0 mm - 654 W/m² -
1788544267 35.56° C 51% 1015.7 hPa 0 mm - 142 W/m² -
1788543961 35.56° C 52% 1015.6 hPa 0 mm - 637 W/m² -
1788543658 35.56° C 50% 1015.7 hPa 0 mm - 634 W/m² -
1788543358 35.56° C 50% 1016 hPa 0 mm - 629 W/m² -
1788543053 35° C 51% 1016.1 hPa 0 mm - 623 W/m² -
1788542749 35.56° C 52% 1015.9 hPa 0 mm - 599 W/m² -
1788542448 35.56° C 51% 1016.2 hPa 0 mm - 608 W/m² -
1788542144 35° C 54% 1016.2 hPa 0 mm - 601 W/m² -
1788541839 34.44° C 56% 1016.1 hPa 0 mm - 597 W/m² -
1788541534 35° C 54% 1016 hPa 0 mm - 586 W/m² -
1788541231 34.44° C 56% 1016.1 hPa 0 mm - 597 W/m² -
1788540929 35° C 55% 1016.1 hPa 0 mm - 579 W/m² -
1788540629 33.33° C 57% 1016.2 hPa 0 mm - 572 W/m² -
1788540324 33.89° C 55% 1016.3 hPa 0 mm - 566 W/m² -

* Rain latest hour (hover to see other rain measurements)
** Current wind speed in m/s (hover to see current wind gust speed)